Time;durP1;ratioP1;P1;durP2;ratioP2;P2;SDS_P1;SDS_P2;PMS_P1;PMS_P2;Temp;Humidity;BMP_temperature;BMP_pressure;BME280_temperature;BME280_humidity;BME280_pressure;Samples;Min_cycle;Max_cycle;Signal;HPM_P1;HPM_P2
2022/11/08 00:02:30;;;;;;;3.60;1.00;;;22.30;52.70;;;;;;5054981;28;20659;-77
2022/11/08 00:16:08;;;;;;;4.90;0.80;;;23.40;47.00;;;;;;4976402;28;20687;-76
2022/11/08 00:18:36;;;;;;;6.10;0.70;;;23.50;46.30;;;;;;4994853;28;20238;-71
2022/11/08 00:21:03;;;;;;;4.87;1.07;;;23.80;45.10;;;;;;5055232;28;20634;-73
2022/11/08 00:23:31;;;;;;;2.50;1.10;;;23.70;43.60;;;;;;5054932;28;20184;-73
2022/11/08 00:25:59;;;;;;;2.67;0.60;;;23.90;42.40;;;;;;5055354;28;20180;-75
2022/11/08 00:28:26;;;;;;;5.80;1.03;;;23.70;37.40;;;;;;5055929;28;20578;-74
2022/11/08 00:30:54;;;;;;;2.47;0.73;;;23.80;38.10;;;;;;5055903;28;20203;-74
2022/11/08 00:33:22;;;;;;;2.13;0.70;;;23.50;39.30;;;;;;5052492;28;20176;-76
2022/11/08 00:35:49;;;;;;;1.97;0.50;;;23.80;39.70;;;;;;5055516;28;20548;-76
2022/11/08 00:38:17;;;;;;;2.97;0.70;;;23.80;40.30;;;;;;5037618;28;20735;-74
2022/11/08 00:40:45;;;;;;;2.83;0.73;;;23.80;40.00;;;;;;5037436;28;20180;-72
2022/11/08 00:43:18;;;;;;;2.43;0.67;;;23.90;39.50;;;;;;5071020;28;20180;-72
2022/11/08 00:45:45;;;;;;;1.33;0.60;;;24.00;40.80;;;;;;5055573;28;20340;-75
2022/11/08 00:48:13;;;;;;;1.47;0.50;;;24.10;38.90;;;;;;5055629;28;20649;-74
2022/11/08 00:50:40;;;;;;;1.73;0.70;;;23.90;42.60;;;;;;5055441;28;20168;-73
2022/11/08 00:53:08;;;;;;;3.00;1.00;;;24.20;40.90;;;;;;5054849;28;20278;-78
2022/11/08 00:55:39;;;;;;;1.30;0.60;;;23.90;42.90;;;;;;5055132;28;20184;-75
2022/11/08 00:58:10;;;;;;;2.47;0.70;;;24.10;48.00;;;;;;5054839;28;20207;-74
2022/11/08 01:00:37;;;;;;;4.93;0.80;;;24.30;47.90;;;;;;5037884;28;20658;-73
2022/11/08 01:03:20;;;;;;;4.50;0.83;;;24.00;46.10;;;;;;5053907;28;20216;-72
2022/11/08 01:05:49;;;;;;;5.93;1.00;;;23.90;47.70;;;;;;5036202;28;20192;-72
2022/11/08 01:08:18;;;;;;;2.00;0.90;;;24.40;47.20;;;;;;5021263;28;20191;-68
2022/11/08 01:10:48;;;;;;;2.60;0.80;;;24.60;44.10;;;;;;5054742;28;20184;-69
2022/11/08 01:13:16;;;;;;;7.13;0.90;;;24.30;47.50;;;;;;5054714;28;20211;-69
2022/11/08 01:15:45;;;;;;;1.80;0.60;;;24.30;47.20;;;;;;5052581;28;20225;-67
2022/11/08 01:18:14;;;;;;;2.93;0.87;;;24.10;48.00;;;;;;5060171;28;20222;-68
2022/11/08 01:20:43;;;;;;;6.33;1.20;;;24.10;47.60;;;;;;5063329;28;20550;-67
2022/11/08 01:23:12;;;;;;;2.83;0.80;;;24.10;49.40;;;;;;5058149;28;20188;-68
2022/11/08 01:25:45;;;;;;;1.87;0.90;;;24.00;49.30;;;;;;5063871;28;20600;-66
2022/11/08 01:28:12;;;;;;;2.57;0.90;;;23.80;50.00;;;;;;5067127;28;20270;-69
2022/11/08 01:30:42;;;;;;;3.03;0.70;;;23.80;46.80;;;;;;5059570;28;20195;-66
2022/11/08 01:33:11;;;;;;;4.53;1.00;;;24.00;48.60;;;;;;5063633;28;20194;-69
2022/11/08 01:35:38;;;;;;;3.90;1.00;;;24.50;47.80;;;;;;5057806;28;20191;-68
2022/11/08 01:38:06;;;;;;;5.73;0.90;;;24.20;48.50;;;;;;5055698;28;20567;-68
2022/11/08 01:40:34;;;;;;;2.93;0.93;;;24.20;48.80;;;;;;5068946;28;20271;-68
2022/11/08 01:43:21;;;;;;;2.87;0.87;;;24.30;48.20;;;;;;5061241;28;20176;-68
2022/11/08 01:46:10;;;;;;;1.07;0.60;;;24.10;47.90;;;;;;5058501;28;20271;-67
2022/11/08 01:48:47;;;;;;;3.17;0.90;;;24.30;45.30;;;;;;5060965;28;20711;-68
2022/11/08 01:51:18;;;;;;;3.33;0.63;;;24.30;46.90;;;;;;5055453;28;20184;-69
2022/11/08 01:53:46;;;;;;;2.60;0.60;;;24.00;43.80;;;;;;5063729;28;20175;-68
2022/11/08 01:56:14;;;;;;;3.63;1.00;;;24.00;46.00;;;;;;5039962;28;20219;-67
2022/11/08 01:58:45;;;;;;;4.77;0.93;;;24.30;42.80;;;;;;5066812;28;20199;-71
2022/11/08 02:01:12;;;;;;;5.50;1.33;;;24.30;41.50;;;;;;5059029;28;20203;-68
2022/11/08 02:03:41;;;;;;;3.13;0.90;;;24.40;42.40;;;;;;5060082;28;20171;-67
2022/11/08 02:06:10;;;;;;;1.43;0.70;;;24.30;40.50;;;;;;5041093;28;20184;-68
2022/11/08 02:08:41;;;;;;;3.33;0.70;;;24.40;41.30;;;;;;5062218;28;20172;-68
2022/11/08 02:11:12;;;;;;;3.23;0.77;;;24.40;36.80;;;;;;5065231;28;20184;-71
2022/11/08 02:13:39;;;;;;;2.90;0.80;;;24.50;38.30;;;;;;5057631;28;20189;-69
2022/11/08 02:16:12;;;;;;;3.50;0.70;;;24.70;40.40;;;;;;5061476;28;20191;-70
2022/11/08 02:18:41;;;;;;;4.20;0.87;;;24.90;39.90;;;;;;5063082;28;20556;-69
2022/11/08 02:21:17;;;;;;;2.93;0.83;;;25.10;40.20;;;;;;5062069;28;20188;-72
2022/11/08 02:23:51;;;;;;;3.97;0.77;;;25.20;41.20;;;;;;5061497;28;20685;-73
2022/11/08 02:26:24;;;;;;;5.83;1.07;;;25.50;42.70;;;;;;5057958;28;20175;-74
2022/11/08 02:28:54;;;;;;;2.23;1.00;;;25.80;41.80;;;;;;5054618;28;20563;-73
2022/11/08 02:31:22;;;;;;;2.97;0.83;;;25.70;41.80;;;;;;5054471;28;20183;-73
2022/11/08 02:33:50;;;;;;;4.67;1.03;;;25.70;43.50;;;;;;5054646;28;20218;-72
2022/11/08 02:36:20;;;;;;;3.60;0.60;;;25.60;44.30;;;;;;5054699;28;20226;-72
2022/11/08 02:38:54;;;;;;;3.60;0.80;;;25.50;42.70;;;;;;5035202;28;20216;-72
2022/11/08 02:41:22;;;;;;;4.77;0.90;;;25.20;42.50;;;;;;5054691;28;20225;-74
2022/11/08 02:43:49;;;;;;;2.87;0.83;;;25.70;41.10;;;;;;5054483;28;20172;-73
2022/11/08 02:46:17;;;;;;;4.67;0.80;;;25.80;40.70;;;;;;5053995;28;20595;-73
2022/11/08 02:48:44;;;;;;;3.33;0.80;;;25.80;41.40;;;;;;5053201;28;20262;-74
2022/11/08 02:51:11;;;;;;;5.33;1.20;;;25.60;38.90;;;;;;5053251;28;20191;-75
2022/11/08 02:53:39;;;;;;;2.33;0.90;;;25.60;43.60;;;;;;5053202;28;20176;-75
2022/11/08 02:56:06;;;;;;;2.80;0.90;;;25.80;43.40;;;;;;5052999;28;20180;-74
2022/11/08 02:58:34;;;;;;;2.40;0.90;;;26.00;42.20;;;;;;5053150;28;20218;-77
2022/11/08 03:01:01;;;;;;;3.50;0.90;;;25.90;45.30;;;;;;5053165;28;20173;-74
2022/11/08 03:03:29;;;;;;;2.27;1.00;;;26.00;45.00;;;;;;5052698;28;20184;-71
2022/11/08 03:05:59;;;;;;;2.47;0.93;;;26.00;45.20;;;;;;5050813;28;20301;-73
2022/11/08 03:08:26;;;;;;;1.40;0.70;;;25.70;45.20;;;;;;5052581;28;20195;-72
2022/11/08 03:10:54;;;;;;;5.07;0.87;;;25.70;44.90;;;;;;5053091;28;20259;-76
2022/11/08 03:13:21;;;;;;;2.37;0.80;;;25.80;44.10;;;;;;5052687;28;20253;-77
2022/11/08 03:15:48;;;;;;;2.60;0.93;;;25.80;41.10;;;;;;5052680;28;20180;-79
2022/11/08 03:18:16;;;;;;;3.40;0.77;;;26.30;41.90;;;;;;5052689;28;20235;-73
2022/11/08 03:20:43;;;;;;;2.63;0.70;;;26.60;43.10;;;;;;5052340;28;20249;-80
2022/11/08 03:23:11;;;;;;;2.97;0.77;;;26.30;42.10;;;;;;5052527;28;20263;-75
2022/11/08 03:25:38;;;;;;;6.20;0.77;;;26.10;43.20;;;;;;5052799;28;20509;-68
2022/11/08 03:28:07;;;;;;;4.93;1.03;;;25.80;47.30;;;;;;5052665;28;20579;-70
2022/11/08 03:30:36;;;;;;;3.30;0.90;;;26.30;45.00;;;;;;5051450;28;20211;-70
2022/11/08 03:33:04;;;;;;;2.73;0.80;;;26.40;45.60;;;;;;5051498;28;20719;-69
2022/11/08 03:35:32;;;;;;;2.90;1.00;;;26.30;45.20;;;;;;5051793;28;20237;-68
2022/11/08 03:37:59;;;;;;;3.10;1.00;;;25.80;46.20;;;;;;5052062;28;20206;-68
2022/11/08 03:40:27;;;;;;;3.57;0.90;;;26.20;44.70;;;;;;5052317;28;20180;-70
2022/11/08 03:42:58;;;;;;;3.23;1.00;;;25.80;46.60;;;;;;5051972;28;20195;-72
2022/11/08 03:45:25;;;;;;;4.03;1.00;;;25.80;48.00;;;;;;5051705;28;20629;-68
2022/11/08 03:47:53;;;;;;;6.60;1.40;;;26.30;45.20;;;;;;5052000;28;20164;-72
2022/11/08 03:50:20;;;;;;;3.70;0.90;;;26.30;46.90;;;;;;5050092;28;20665;-68
2022/11/08 03:52:50;;;;;;;1.80;0.70;;;26.30;45.90;;;;;;5047748;28;20292;-68
2022/11/08 03:55:20;;;;;;;6.30;1.50;;;26.50;46.00;;;;;;5051381;28;20598;-69
2022/11/08 03:57:49;;;;;;;3.67;1.10;;;26.60;47.60;;;;;;5050888;28;20644;-69
2022/11/08 04:00:22;;;;;;;5.83;1.00;;;26.30;44.50;;;;;;5051194;28;20183;-73
2022/11/08 04:02:50;;;;;;;7.07;1.00;;;26.30;46.20;;;;;;5051267;28;20176;-69
2022/11/08 04:05:18;;;;;;;1.13;0.67;;;26.20;48.00;;;;;;5050539;28;20164;-70
2022/11/08 04:07:46;;;;;;;7.23;1.13;;;26.50;47.30;;;;;;5043649;28;20184;-68
2022/11/08 04:10:14;;;;;;;2.57;1.00;;;26.60;47.50;;;;;;5049090;28;20195;-72
2022/11/08 04:15:29;;;;;;;2.43;0.90;;;26.30;47.80;;;;;;5051721;28;20668;-72
2022/11/08 04:23:32;;;;;;;1.90;0.67;;;26.70;48.50;;;;;;5047928;28;20187;-69
2022/11/08 04:26:01;;;;;;;4.20;0.90;;;27.30;45.20;;;;;;5046968;28;20201;-73
2022/11/08 04:28:31;;;;;;;2.73;0.90;;;26.90;46.10;;;;;;5059307;28;20643;-68
2022/11/08 04:31:07;;;;;;;2.63;0.90;;;26.90;45.60;;;;;;5050777;28;20180;-74
2022/11/08 04:33:35;;;;;;;4.57;0.97;;;26.40;47.80;;;;;;5049544;28;20515;-69
2022/11/08 04:36:06;;;;;;;2.13;0.80;;;26.70;47.60;;;;;;5051458;28;20176;-68
2022/11/08 04:38:34;;;;;;;3.90;1.37;;;27.50;45.90;;;;;;5051396;28;20258;-67
2022/11/08 04:41:12;;;;;;;4.07;0.90;;;27.00;46.00;;;;;;5050428;28;20180;-71
2022/11/08 04:43:40;;;;;;;3.97;1.10;;;26.80;47.20;;;;;;5032023;28;20215;-74
2022/11/08 04:46:10;;;;;;;1.73;0.90;;;26.60;47.50;;;;;;5050512;28;20299;-71
2022/11/08 04:48:38;;;;;;;4.07;1.17;;;26.80;45.20;;;;;;5054972;28;20184;-79
2022/11/08 04:51:09;;;;;;;4.03;1.30;;;26.10;46.80;;;;;;5054390;28;20194;-73
2022/11/08 04:53:37;;;;;;;6.13;0.90;;;26.20;46.40;;;;;;5054818;28;20271;-72
2022/11/08 04:56:07;;;;;;;4.40;0.93;;;26.30;46.80;;;;;;5055075;28;20184;-72
2022/11/08 04:58:37;;;;;;;4.83;1.00;;;26.30;47.00;;;;;;5048904;28;20614;-75
2022/11/08 05:01:06;;;;;;;1.90;0.73;;;26.50;46.60;;;;;;5049159;28;20560;-77
2022/11/08 05:03:34;;;;;;;4.17;0.73;;;26.30;47.60;;;;;;5054952;28;20234;-74
2022/11/08 05:06:11;;;;;;;6.57;1.03;;;26.60;46.70;;;;;;5052292;28;20187;-76
2022/11/08 05:08:39;;;;;;;3.83;1.10;;;26.10;46.80;;;;;;5054027;28;20274;-71
2022/11/08 05:11:10;;;;;;;4.97;2.33;;;26.40;46.90;;;;;;5054211;28;20776;-74
2022/11/08 05:13:38;;;;;;;3.27;0.80;;;26.30;45.40;;;;;;5054353;28;20187;-75
2022/11/08 05:16:08;;;;;;;2.33;0.90;;;26.70;46.00;;;;;;5053569;28;20184;-75
2022/11/08 05:18:35;;;;;;;6.83;0.90;;;26.40;46.00;;;;;;5058393;28;20207;-73
2022/11/08 05:23:50;;;;;;;3.03;0.70;;;26.40;47.00;;;;;;5054830;28;20775;-69
2022/11/08 05:26:19;;;;;;;5.80;0.90;;;26.70;46.40;;;;;;5054511;28;20517;-73
2022/11/08 05:28:47;;;;;;;4.17;0.97;;;26.30;46.30;;;;;;5054190;28;20188;-68
2022/11/08 05:31:15;;;;;;;3.93;1.03;;;26.40;46.30;;;;;;5052616;28;20188;-69
2022/11/08 05:33:43;;;;;;;2.73;0.87;;;26.70;46.10;;;;;;5028735;28;20180;-68
2022/11/08 05:36:12;;;;;;;4.23;0.77;;;27.30;45.00;;;;;;5049073;28;20179;-68
2022/11/08 05:38:40;;;;;;;2.63;0.60;;;26.60;46.40;;;;;;5048851;28;20218;-70
2022/11/08 05:41:14;;;;;;;3.90;1.13;;;26.50;47.30;;;;;;5053900;28;20183;-70
2022/11/08 05:43:42;;;;;;;3.83;0.80;;;26.70;47.20;;;;;;5054238;28;20702;-69
2022/11/08 05:46:10;;;;;;;4.27;0.90;;;26.60;47.00;;;;;;5024627;28;20668;-72
2022/11/08 05:48:37;;;;;;;2.80;0.80;;;26.90;46.70;;;;;;5029690;28;20550;-68
2022/11/08 05:51:05;;;;;;;3.03;0.87;;;26.60;47.30;;;;;;5027857;28;20177;-68
2022/11/08 05:53:32;;;;;;;2.90;0.87;;;27.00;46.70;;;;;;5065895;28;20180;-69
2022/11/08 05:56:01;;;;;;;4.20;0.90;;;27.00;45.90;;;;;;5030155;28;20192;-68
2022/11/08 05:58:30;;;;;;;2.93;0.90;;;26.50;47.00;;;;;;5033589;28;20254;-67
2022/11/08 06:01:06;;;;;;;3.03;0.80;;;26.80;46.40;;;;;;5034036;28;20556;-69
2022/11/08 06:03:34;;;;;;;2.37;0.80;;;27.30;46.50;;;;;;5034201;28;20184;-68
2022/11/08 06:06:07;;;;;;;2.47;0.87;;;27.50;45.50;;;;;;5031656;28;20195;-67
2022/11/08 06:08:35;;;;;;;5.20;1.30;;;27.00;47.50;;;;;;5026007;28;20238;-68
2022/11/08 06:11:12;;;;;;;2.33;0.70;;;26.90;47.60;;;;;;5033670;28;20259;-67
2022/11/08 06:13:40;;;;;;;2.70;0.70;;;27.00;46.50;;;;;;5030571;28;20211;-69
2022/11/08 06:16:12;;;;;;;2.73;0.80;;;26.80;47.50;;;;;;5031870;28;20192;-67
2022/11/08 06:18:40;;;;;;;4.50;1.20;;;26.40;48.60;;;;;;5031251;28;20299;-68
2022/11/08 06:21:12;;;;;;;4.20;1.07;;;26.60;47.90;;;;;;5018947;28;20179;-67
2022/11/08 06:23:40;;;;;;;5.70;1.00;;;26.80;47.40;;;;;;5020808;28;20190;-67
2022/11/08 06:26:08;;;;;;;3.80;1.30;;;26.90;47.40;;;;;;5025835;28;20204;-68
2022/11/08 06:28:36;;;;;;;2.50;0.90;;;26.60;48.50;;;;;;5032666;28;20215;-68
2022/11/08 06:31:04;;;;;;;2.27;0.63;;;26.50;47.50;;;;;;5032692;28;20181;-68
2022/11/08 06:33:33;;;;;;;4.60;1.00;;;26.30;47.40;;;;;;5033283;28;20177;-69
2022/11/08 06:36:00;;;;;;;3.93;0.97;;;26.20;47.60;;;;;;5033443;28;20238;-68
2022/11/08 06:38:27;;;;;;;2.70;0.73;;;26.20;47.10;;;;;;5026606;28;20208;-68
2022/11/08 06:40:58;;;;;;;1.43;0.70;;;25.00;50.60;;;;;;5026495;28;20180;-69
2022/11/08 06:43:25;;;;;;;3.10;0.97;;;25.20;49.60;;;;;;5017746;28;20169;-68
2022/11/08 06:45:52;;;;;;;3.03;0.87;;;26.20;47.90;;;;;;5042399;28;20358;-68
2022/11/08 06:48:20;;;;;;;1.80;0.80;;;26.30;46.50;;;;;;5047330;28;20187;-68
2022/11/08 06:50:47;;;;;;;3.93;0.90;;;25.80;48.10;;;;;;5053175;28;20507;-69
2022/11/08 06:53:14;;;;;;;6.87;1.00;;;25.50;48.20;;;;;;5046240;28;20207;-68
2022/11/08 06:55:42;;;;;;;7.40;1.13;;;25.90;47.70;;;;;;5037471;28;20717;-68
2022/11/08 06:58:10;;;;;;;4.60;0.90;;;25.60;48.80;;;;;;5050282;28;20175;-68
2022/11/08 07:00:38;;;;;;;3.23;0.90;;;25.20;49.50;;;;;;5049201;28;20730;-68
2022/11/08 07:03:05;;;;;;;3.93;1.03;;;25.40;48.40;;;;;;5050839;28;20176;-67
2022/11/08 07:05:34;;;;;;;3.23;0.93;;;24.70;50.50;;;;;;5050155;28;20212;-68
2022/11/08 07:08:02;;;;;;;6.57;1.07;;;25.20;49.90;;;;;;5050003;28;20182;-66
2022/11/08 07:10:31;;;;;;;4.57;1.20;;;25.30;49.50;;;;;;5051552;28;20171;-68
2022/11/08 07:13:04;;;;;;;4.33;1.87;;;24.90;50.10;;;;;;5032854;28;20181;-70
2022/11/08 07:15:33;;;;;;;6.80;1.13;;;24.90;50.50;;;;;;5038941;28;20238;-69
2022/11/08 07:18:12;;;;;;;5.67;1.00;;;24.20;52.20;;;;;;5041672;28;20596;-69
2022/11/08 07:20:40;;;;;;;3.73;1.03;;;24.20;52.40;;;;;;5038638;28;20190;-68
2022/11/08 07:23:08;;;;;;;1.97;0.80;;;24.60;51.40;;;;;;5041417;28;20653;-72
2022/11/08 07:25:36;;;;;;;3.93;1.00;;;24.30;52.00;;;;;;5052032;28;20180;-75
2022/11/08 07:28:06;;;;;;;1.47;0.80;;;23.40;53.60;;;;;;5052828;28;20184;-71
2022/11/08 07:30:34;;;;;;;2.97;0.80;;;22.80;55.70;;;;;;5052611;28;20509;-72
2022/11/08 07:33:02;;;;;;;3.53;1.13;;;22.60;56.70;;;;;;5052046;28;20178;-70
2022/11/08 07:35:29;;;;;;;5.83;1.20;;;22.40;57.30;;;;;;5036163;28;20820;-69
2022/11/08 07:37:57;;;;;;;6.00;1.40;;;22.20;57.50;;;;;;5066955;28;20184;-75
2022/11/08 07:40:25;;;;;;;4.40;1.37;;;21.90;58.40;;;;;;5052646;28;20186;-71
2022/11/08 07:42:52;;;;;;;4.80;0.90;;;21.70;59.50;;;;;;5052571;28;20646;-70
2022/11/08 07:45:19;;;;;;;4.00;1.00;;;21.60;60.40;;;;;;5052273;28;20274;-70
2022/11/08 07:47:47;;;;;;;4.23;0.90;;;21.30;61.20;;;;;;5052479;28;20176;-76
2022/11/08 07:50:14;;;;;;;7.63;1.00;;;21.30;62.20;;;;;;5052433;28;20202;-72
2022/11/08 07:52:41;;;;;;;4.50;1.20;;;21.20;62.80;;;;;;5052376;28;20168;-69
2022/11/08 07:55:09;;;;;;;9.10;1.93;;;21.20;63.50;;;;;;5052360;28;20187;-67
2022/11/08 07:57:36;;;;;;;3.37;1.00;;;21.00;64.30;;;;;;5051907;28;20191;-68
2022/11/08 08:00:04;;;;;;;7.00;1.20;;;20.90;65.10;;;;;;5050302;28;20207;-71
2022/11/08 08:02:31;;;;;;;6.47;1.00;;;20.80;65.20;;;;;;5051806;28;20182;-68
2022/11/08 08:04:59;;;;;;;7.97;1.53;;;20.80;65.20;;;;;;5051530;28;20218;-68
2022/11/08 08:07:26;;;;;;;6.03;2.17;;;20.60;65.60;;;;;;5048130;28;20186;-68
2022/11/08 08:09:53;;;;;;;3.67;1.23;;;20.60;66.10;;;;;;5052379;28;20259;-68
2022/11/08 08:12:21;;;;;;;8.03;2.57;;;20.60;66.40;;;;;;5052264;28;20214;-68
2022/11/08 08:14:48;;;;;;;5.87;1.47;;;20.60;66.20;;;;;;5052488;28;20175;-69
2022/11/08 08:17:15;;;;;;;5.97;2.13;;;20.50;66.40;;;;;;5051904;28;20665;-68
2022/11/08 08:19:43;;;;;;;8.30;1.43;;;20.40;66.00;;;;;;5053855;28;20204;-69
2022/11/08 08:22:10;;;;;;;6.23;1.80;;;20.40;66.20;;;;;;5054226;28;20184;-69
2022/11/08 08:24:38;;;;;;;4.63;1.20;;;20.40;66.30;;;;;;5056144;28;20631;-69
2022/11/08 08:27:05;;;;;;;4.73;1.70;;;20.30;66.10;;;;;;5056371;28;20209;-68
2022/11/08 08:29:32;;;;;;;5.60;1.33;;;20.30;66.10;;;;;;5047657;28;20222;-67
2022/11/08 08:32:00;;;;;;;5.37;1.30;;;20.30;65.90;;;;;;5055795;28;20555;-68
2022/11/08 08:34:27;;;;;;;3.70;1.20;;;20.20;66.30;;;;;;5055911;28;20186;-68
2022/11/08 08:36:54;;;;;;;5.67;1.30;;;20.20;65.80;;;;;;5055653;28;20164;-68
2022/11/08 08:39:22;;;;;;;5.90;1.30;;;20.10;66.10;;;;;;5055503;28;20219;-68
2022/11/08 08:41:49;;;;;;;10.23;1.50;;;20.10;66.40;;;;;;5054784;28;20186;-68
2022/11/08 08:44:16;;;;;;;2.57;0.83;;;20.10;66.60;;;;;;5043040;28;20232;-67
2022/11/08 08:46:44;;;;;;;6.10;0.93;;;20.00;67.20;;;;;;5053738;28;20581;-67
2022/11/08 08:49:11;;;;;;;9.53;1.13;;;20.00;67.20;;;;;;5053741;28;20187;-66
2022/11/08 08:51:38;;;;;;;7.73;1.10;;;20.00;67.20;;;;;;5041263;28;20634;-68
2022/11/08 08:54:06;;;;;;;4.23;0.93;;;19.80;67.70;;;;;;5054072;28;20267;-67
2022/11/08 08:56:33;;;;;;;6.43;1.03;;;19.90;67.60;;;;;;5055046;28;20230;-66
2022/11/08 08:59:01;;;;;;;5.30;1.20;;;19.90;67.60;;;;;;5054126;28;20662;-67
2022/11/08 09:01:28;;;;;;;5.13;1.50;;;20.00;67.80;;;;;;5054135;28;20186;-67
2022/11/08 09:03:57;;;;;;;7.50;1.43;;;19.90;68.00;;;;;;5055279;28;20587;-67
2022/11/08 09:06:24;;;;;;;3.37;1.20;;;19.90;68.10;;;;;;5054657;28;20530;-66
2022/11/08 09:08:52;;;;;;;5.90;1.10;;;19.80;68.10;;;;;;5053198;28;20191;-66
2022/11/08 09:11:19;;;;;;;6.43;1.50;;;19.80;68.40;;;;;;5054983;28;20267;-67
2022/11/08 09:13:46;;;;;;;4.03;1.00;;;19.80;68.10;;;;;;5054815;28;20238;-67
2022/11/08 09:16:14;;;;;;;3.87;1.00;;;19.70;68.20;;;;;;5054467;28;20184;-67
2022/11/08 09:18:41;;;;;;;10.93;1.50;;;19.70;68.60;;;;;;5053891;28;20269;-68
2022/11/08 09:21:09;;;;;;;5.67;1.23;;;19.70;69.00;;;;;;5054782;28;20628;-69
2022/11/08 09:23:40;;;;;;;3.43;1.17;;;19.70;69.40;;;;;;5053991;28;20535;-74
2022/11/08 09:26:07;;;;;;;7.27;1.40;;;19.70;69.40;;;;;;5054545;28;20176;-76
2022/11/08 09:28:36;;;;;;;9.63;1.30;;;19.70;69.70;;;;;;5042200;28;20196;-72
2022/11/08 09:31:08;;;;;;;4.27;0.93;;;19.70;69.70;;;;;;5047382;28;20643;-71
2022/11/08 09:33:37;;;;;;;5.73;1.00;;;19.60;69.90;;;;;;5054376;28;20188;-74
2022/11/08 09:36:06;;;;;;;4.17;0.97;;;19.60;70.10;;;;;;5054556;28;20175;-72
2022/11/08 09:38:34;;;;;;;1.63;1.17;;;19.60;70.20;;;;;;5050007;28;20510;-71
2022/11/08 09:41:10;;;;;;;4.23;1.57;;;19.60;70.30;;;;;;5051826;28;20184;-76
2022/11/08 09:43:51;;;;;;;5.33;1.20;;;19.60;70.60;;;;;;5052933;28;20187;-77
2022/11/08 09:46:44;;;;;;;5.10;1.03;;;19.60;70.60;;;;;;5052369;28;20180;-74
2022/11/08 09:49:25;;;;;;;11.03;1.47;;;19.60;70.80;;;;;;5050630;28;20188;-76
2022/11/08 09:51:53;;;;;;;5.20;1.33;;;19.60;70.80;;;;;;5041838;28;20245;-79
2022/11/08 09:54:42;;;;;;;4.20;1.10;;;19.60;71.10;;;;;;5054576;28;20176;-79
2022/11/08 09:57:23;;;;;;;7.03;0.97;;;19.50;71.10;;;;;;5053650;28;20180;-72
2022/11/08 10:00:12;;;;;;;4.97;0.90;;;19.50;71.20;;;;;;5053993;28;20216;-77
2022/11/08 10:02:39;;;;;;;7.37;1.10;;;19.50;71.50;;;;;;5066551;28;20587;-78
2022/11/08 10:05:14;;;;;;;5.53;1.00;;;19.50;71.60;;;;;;5053293;28;20546;-75
2022/11/08 10:07:53;;;;;;;3.77;0.90;;;19.50;71.80;;;;;;5047243;28;20711;-75
2022/11/08 10:10:38;;;;;;;4.53;1.23;;;19.50;71.50;;;;;;5052268;28;20175;-73
2022/11/08 10:13:29;;;;;;;2.83;1.10;;;19.50;71.70;;;;;;5048461;28;20183;-76
2022/11/08 10:16:14;;;;;;;8.00;1.40;;;19.50;71.60;;;;;;5053000;28;20548;-73
2022/11/08 10:19:18;;;;;;;6.93;1.50;;;19.40;71.40;;;;;;5051809;28;20241;-76
2022/11/08 10:22:08;;;;;;;4.37;1.10;;;19.50;71.40;;;;;;5052189;28;20713;-77
2022/11/08 10:24:39;;;;;;;6.63;1.17;;;19.50;71.50;;;;;;5036951;28;20189;-73
2022/11/08 10:27:15;;;;;;;5.47;1.60;;;19.50;71.60;;;;;;5051237;28;20277;-68
2022/11/08 10:29:45;;;;;;;7.40;1.23;;;19.40;71.80;;;;;;5050384;28;20646;-65
2022/11/08 10:32:22;;;;;;;7.00;1.07;;;19.40;71.60;;;;;;5053630;28;20369;-67
2022/11/08 10:35:18;;;;;;;4.80;1.33;;;19.40;71.60;;;;;;5053436;28;20262;-69
2022/11/08 10:37:50;;;;;;;5.77;1.23;;;19.40;71.70;;;;;;5011491;28;20193;-67
2022/11/08 10:40:36;;;;;;;9.30;1.57;;;19.40;72.00;;;;;;5051077;28;20273;-67
2022/11/08 10:43:37;;;;;;;6.00;1.20;;;19.40;72.00;;;;;;5045399;28;20681;-67
2022/11/08 10:46:11;;;;;;;6.67;1.20;;;19.40;72.30;;;;;;4996593;28;20312;-67
2022/11/08 10:48:39;;;;;;;4.00;1.00;;;19.40;72.00;;;;;;5040394;28;20183;-69
2022/11/08 10:51:07;;;;;;;4.33;1.00;;;19.50;71.90;;;;;;5049035;28;20839;-67
2022/11/08 10:53:43;;;;;;;6.33;1.43;;;19.50;71.70;;;;;;5051210;28;20191;-70
2022/11/08 10:56:10;;;;;;;4.67;1.20;;;19.40;72.00;;;;;;5050490;28;20183;-71
2022/11/08 10:58:40;;;;;;;6.20;1.70;;;19.40;72.20;;;;;;5052706;28;20298;-70
2022/11/08 11:01:21;;;;;;;8.33;1.50;;;19.40;71.90;;;;;;5045658;28;20660;-71
2022/11/08 11:03:50;;;;;;;3.93;1.50;;;19.40;72.10;;;;;;5052123;28;20186;-70
2022/11/08 11:06:29;;;;;;;5.80;1.60;;;19.50;71.90;;;;;;5041917;28;20193;-73
2022/11/08 11:08:59;;;;;;;5.93;1.10;;;19.40;72.20;;;;;;5052559;28;20191;-71
2022/11/08 11:11:37;;;;;;;7.00;1.50;;;19.40;72.20;;;;;;5053370;28;20263;-67
2022/11/08 11:14:11;;;;;;;6.87;1.23;;;19.40;72.50;;;;;;5054072;28;20180;-70
2022/11/08 11:16:57;;;;;;;6.37;1.27;;;19.40;72.60;;;;;;5053129;28;20215;-66
2022/11/08 11:19:26;;;;;;;4.70;1.20;;;19.40;72.80;;;;;;5052306;28;20212;-66
2022/11/08 11:22:06;;;;;;;5.00;1.10;;;19.30;73.10;;;;;;5052181;28;20199;-66
2022/11/08 11:24:36;;;;;;;4.13;1.10;;;19.30;73.20;;;;;;5052470;28;20184;-66
2022/11/08 11:27:18;;;;;;;8.00;1.20;;;19.30;73.50;;;;;;5052600;28;20188;-66
2022/11/08 11:29:45;;;;;;;3.40;0.80;;;19.30;73.50;;;;;;5052421;28;20187;-68
2022/11/08 11:32:25;;;;;;;5.40;1.17;;;19.30;73.70;;;;;;5052678;28;20187;-66
2022/11/08 11:34:53;;;;;;;5.30;0.97;;;19.20;73.90;;;;;;5052679;28;20273;-65
2022/11/08 11:37:44;;;;;;;6.60;1.10;;;19.20;74.00;;;;;;5051945;28;20186;-69
2022/11/08 11:40:26;;;;;;;2.43;0.90;;;19.10;74.10;;;;;;5052132;28;20269;-66
2022/11/08 11:43:05;;;;;;;3.73;0.97;;;19.20;74.20;;;;;;5052795;28;20176;-66
2022/11/08 11:45:55;;;;;;;4.87;0.97;;;19.10;74.40;;;;;;5052188;28;20247;-66
2022/11/08 11:48:29;;;;;;;9.80;1.30;;;19.20;74.40;;;;;;5051865;28;20176;-69
2022/11/08 11:50:57;;;;;;;3.57;1.17;;;19.10;74.60;;;;;;5052281;28;20180;-66
2022/11/08 11:53:32;;;;;;;6.90;1.50;;;19.20;74.60;;;;;;5053196;28;20179;-68
2022/11/08 11:56:36;;;;;;;5.77;1.23;;;19.10;74.60;;;;;;5056179;28;20187;-66
2022/11/08 11:59:21;;;;;;;5.07;1.10;;;19.10;74.70;;;;;;5043163;28;20211;-68
2022/11/08 12:02:19;;;;;;;5.33;1.30;;;19.20;74.70;;;;;;5056209;28;20228;-67
2022/11/08 12:04:52;;;;;;;5.13;1.10;;;19.20;74.70;;;;;;5056431;28;20183;-66
2022/11/08 12:07:29;;;;;;;9.00;1.37;;;19.10;74.60;;;;;;5055371;28;20183;-67
2022/11/08 12:10:26;;;;;;;7.00;1.57;;;19.20;74.80;;;;;;5056309;28;20791;-66
2022/11/08 12:13:14;;;;;;;10.37;1.30;;;19.20;74.60;;;;;;5044963;28;20271;-67
2022/11/08 12:15:44;;;;;;;5.27;1.37;;;19.10;74.90;;;;;;5055965;28;20182;-66
2022/11/08 12:18:29;;;;;;;9.20;1.37;;;19.10;75.20;;;;;;5071215;28;20188;-70
2022/11/08 12:21:42;;;;;;;6.70;1.37;;;19.00;75.30;;;;;;5056238;28;20180;-74
2022/11/08 12:24:34;;;;;;;5.37;1.63;;;19.00;76.10;;;;;;4974424;28;20276;-73
2022/11/08 12:27:41;;;;;;;6.30;1.30;;;18.90;76.20;;;;;;4975407;28;20187;-75
2022/11/08 12:30:11;;;;;;;9.07;1.43;;;19.00;76.30;;;;;;5046713;28;20199;-72
2022/11/08 12:33:15;;;;;;;9.80;1.67;;;18.90;76.60;;;;;;5068504;28;20540;-71
2022/11/08 12:36:19;;;;;;;6.17;1.47;;;18.90;76.40;;;;;;5023797;28;20286;-76
2022/11/08 12:39:07;;;;;;;6.57;1.47;;;18.90;76.60;;;;;;5046597;28;20204;-77
2022/11/08 12:42:01;;;;;;;7.50;1.50;;;18.90;76.70;;;;;;5042744;28;20575;-77
2022/11/08 12:44:56;;;;;;;8.23;1.43;;;18.90;76.70;;;;;;5055657;28;20251;-70
2022/11/08 12:47:45;;;;;;;5.57;1.27;;;18.80;76.90;;;;;;5055606;28;20176;-71
2022/11/08 12:50:13;;;;;;;7.33;1.40;;;18.80;77.20;;;;;;5054972;28;20258;-75
2022/11/08 12:52:55;;;;;;;8.50;1.27;;;18.80;77.20;;;;;;5051629;28;20168;-77
2022/11/08 12:55:37;;;;;;;8.27;1.97;;;18.80;77.40;;;;;;5055356;28;20210;-77
2022/11/08 12:58:31;;;;;;;7.53;1.30;;;18.80;77.80;;;;;;5052193;28;20175;-66
2022/11/08 13:01:04;;;;;;;4.77;0.97;;;18.80;78.00;;;;;;5041559;28;20188;-68
2022/11/08 13:03:40;;;;;;;11.70;1.60;;;18.70;78.40;;;;;;5048903;28;20274;-68
2022/11/08 13:06:37;;;;;;;6.10;1.50;;;18.70;78.70;;;;;;5054062;28;20184;-71
2022/11/08 13:09:07;;;;;;;5.77;1.23;;;18.70;78.80;;;;;;5054812;28;20182;-67
2022/11/08 13:12:12;;;;;;;6.27;1.30;;;18.70;78.90;;;;;;5051445;28;20673;-67
2022/11/08 13:14:40;;;;;;;8.97;1.47;;;18.50;79.10;;;;;;5055163;28;20226;-67
2022/11/08 13:17:25;;;;;;;11.33;1.60;;;18.60;79.40;;;;;;5055059;28;20274;-67
2022/11/08 13:19:55;;;;;;;8.63;1.30;;;18.60;79.30;;;;;;5054812;28;20246;-67
2022/11/08 13:22:31;;;;;;;7.83;2.00;;;18.50;79.40;;;;;;5054143;28;20485;-67
2022/11/08 13:25:18;;;;;;;5.43;1.73;;;18.50;79.70;;;;;;5051743;28;20269;-66
2022/11/08 13:27:47;;;;;;;6.87;1.30;;;18.50;79.50;;;;;;5056106;28;20537;-67
2022/11/08 13:30:17;;;;;;;6.50;1.90;;;18.40;79.30;;;;;;5055084;28;20184;-67
2022/11/08 13:33:11;;;;;;;6.50;1.40;;;18.40;79.10;;;;;;5054681;28;20191;-73
2022/11/08 13:35:53;;;;;;;9.47;1.53;;;18.40;79.20;;;;;;5054621;28;20233;-69